sensor_id;sensor_type;location;lat;lon;timestamp;temperature;humidity
1377;DHT22;682;52.502;13.488;2023-07-02T00:00:14;19.10;1.00
1377;DHT22;682;52.502;13.488;2023-07-02T00:02:41;19.20;1.00
1377;DHT22;682;52.502;13.488;2023-07-02T00:05:08;19.20;1.00
1377;DHT22;682;52.502;13.488;2023-07-02T00:07:36;19.20;1.00
1377;DHT22;682;52.502;13.488;2023-07-02T00:10:04;19.30;1.00
1377;DHT22;682;52.502;13.488;2023-07-02T00:12:31;19.20;1.00
1377;DHT22;682;52.502;13.488;2023-07-02T00:14:58;19.10;1.00
1377;DHT22;682;52.502;13.488;2023-07-02T00:17:25;19.00;1.00
1377;DHT22;682;52.502;13.488;2023-07-02T00:19:52;18.90;1.00
1377;DHT22;682;52.502;13.488;2023-07-02T00:22:19;18.80;1.00
1377;DHT22;682;52.502;13.488;2023-07-02T00:24:47;18.70;1.00
1377;DHT22;682;52.502;13.488;2023-07-02T00:27:16;18.60;1.00
1377;DHT22;682;52.502;13.488;2023-07-02T00:29:42;18.60;1.00
1377;DHT22;682;52.502;13.488;2023-07-02T00:32:09;18.50;1.00
1377;DHT22;682;52.502;13.488;2023-07-02T00:34:36;18.50;1.00
1377;DHT22;682;52.502;13.488;2023-07-02T00:37:03;18.40;1.00
1377;DHT22;682;52.502;13.488;2023-07-02T00:39:30;18.40;1.00
1377;DHT22;682;52.502;13.488;2023-07-02T00:42:02;18.40;1.00
1377;DHT22;682;52.502;13.488;2023-07-02T00:44:29;18.30;1.00
1377;DHT22;682;52.502;13.488;2023-07-02T00:46:57;18.30;1.00
1377;DHT22;682;52.502;13.488;2023-07-02T00:49:29;18.40;1.00
1377;DHT22;682;52.502;13.488;2023-07-02T00:51:55;18.40;1.00
1377;DHT22;682;52.502;13.488;2023-07-02T00:54:23;18.40;1.00
1377;DHT22;682;52.502;13.488;2023-07-02T00:56:50;18.40;1.00
1377;DHT22;682;52.502;13.488;2023-07-02T00:59:18;18.50;1.00
1377;DHT22;682;52.502;13.488;2023-07-02T01:01:46;18.50;1.00
1377;DHT22;682;52.502;13.488;2023-07-02T01:07:40;18.50;1.00
1377;DHT22;682;52.502;13.488;2023-07-02T01:10:09;18.50;1.00
1377;DHT22;682;52.502;13.488;2023-07-02T01:12:46;18.50;1.00
1377;DHT22;682;52.502;13.488;2023-07-02T01:15:15;18.60;1.00
1377;DHT22;682;52.502;13.488;2023-07-02T01:17:45;18.60;1.00
1377;DHT22;682;52.502;13.488;2023-07-02T01:20:17;18.60;1.00
1377;DHT22;682;52.502;13.488;2023-07-02T01:22:49;18.70;1.00
1377;DHT22;682;52.502;13.488;2023-07-02T01:25:18;18.70;1.00
1377;DHT22;682;52.502;13.488;2023-07-02T01:27:50;18.70;1.00
1377;DHT22;682;52.502;13.488;2023-07-02T01:30:19;18.70;1.00
1377;DHT22;682;52.502;13.488;2023-07-02T01:32:46;18.70;1.00
1377;DHT22;682;52.502;13.488;2023-07-02T01:35:18;18.80;1.00
1377;DHT22;682;52.502;13.488;2023-07-02T01:37:45;18.80;1.00
1377;DHT22;682;52.502;13.488;2023-07-02T01:40:12;18.80;1.00
1377;DHT22;682;52.502;13.488;2023-07-02T01:42:48;18.80;1.00
1377;DHT22;682;52.502;13.488;2023-07-02T01:45:30;18.80;1.00
1377;DHT22;682;52.502;13.488;2023-07-02T01:48:06;18.70;1.00
1377;DHT22;682;52.502;13.488;2023-07-02T01:50:35;18.70;1.00
1377;DHT22;682;52.502;13.488;2023-07-02T01:53:02;18.60;1.00
1377;DHT22;682;52.502;13.488;2023-07-02T01:55:31;18.60;1.00
1377;DHT22;682;52.502;13.488;2023-07-02T01:57:58;18.60;1.00
1377;DHT22;682;52.502;13.488;2023-07-02T02:00:34;18.60;1.00
1377;DHT22;682;52.502;13.488;2023-07-02T02:03:04;18.60;1.00
1377;DHT22;682;52.502;13.488;2023-07-02T02:05:39;18.50;1.00
1377;DHT22;682;52.502;13.488;2023-07-02T02:08:06;18.50;1.00
1377;DHT22;682;52.502;13.488;2023-07-02T02:10:33;18.40;1.00
1377;DHT22;682;52.502;13.488;2023-07-02T02:13:00;18.50;1.00
1377;DHT22;682;52.502;13.488;2023-07-02T02:15:28;18.50;1.00
1377;DHT22;682;52.502;13.488;2023-07-02T02:18:12;18.50;1.00
1377;DHT22;682;52.502;13.488;2023-07-02T02:20:48;18.50;1.00
1377;DHT22;682;52.502;13.488;2023-07-02T02:23:19;18.50;1.00
1377;DHT22;682;52.502;13.488;2023-07-02T02:25:47;18.40;1.00
1377;DHT22;682;52.502;13.488;2023-07-02T02:28:30;18.40;1.00
1377;DHT22;682;52.502;13.488;2023-07-02T02:30:59;18.30;1.00
1377;DHT22;682;52.502;13.488;2023-07-02T02:33:33;18.30;1.00
1377;DHT22;682;52.502;13.488;2023-07-02T02:36:10;18.30;1.00
1377;DHT22;682;52.502;13.488;2023-07-02T02:39:02;18.30;1.00
1377;DHT22;682;52.502;13.488;2023-07-02T02:41:32;18.30;1.00
1377;DHT22;682;52.502;13.488;2023-07-02T02:44:04;18.30;1.00
1377;DHT22;682;52.502;13.488;2023-07-02T02:46:33;18.30;1.00
1377;DHT22;682;52.502;13.488;2023-07-02T02:49:00;18.30;1.00
1377;DHT22;682;52.502;13.488;2023-07-02T02:51:31;18.30;1.00
1377;DHT22;682;52.502;13.488;2023-07-02T02:53:58;18.30;1.00
1377;DHT22;682;52.502;13.488;2023-07-02T02:56:26;18.30;1.00
1377;DHT22;682;52.502;13.488;2023-07-02T02:58:53;18.30;1.00
1377;DHT22;682;52.502;13.488;2023-07-02T03:01:23;18.30;1.00
1377;DHT22;682;52.502;13.488;2023-07-02T03:04:01;18.30;1.00
1377;DHT22;682;52.502;13.488;2023-07-02T03:09:49;18.30;1.00
1377;DHT22;682;52.502;13.488;2023-07-02T03:12:22;18.40;1.00
1377;DHT22;682;52.502;13.488;2023-07-02T03:14:51;18.40;1.00
1377;DHT22;682;52.502;13.488;2023-07-02T03:17:20;18.40;1.00
1377;DHT22;682;52.502;13.488;2023-07-02T03:19:47;18.40;1.00
1377;DHT22;682;52.502;13.488;2023-07-02T03:22:14;18.30;1.00
1377;DHT22;682;52.502;13.488;2023-07-02T03:24:41;18.20;1.00
1377;DHT22;682;52.502;13.488;2023-07-02T03:27:10;18.20;1.00
1377;DHT22;682;52.502;13.488;2023-07-02T03:29:37;18.20;1.00
1377;DHT22;682;52.502;13.488;2023-07-02T03:32:08;18.20;1.00
1377;DHT22;682;52.502;13.488;2023-07-02T03:34:35;18.20;1.00
1377;DHT22;682;52.502;13.488;2023-07-02T03:37:02;18.20;1.00
1377;DHT22;682;52.502;13.488;2023-07-02T03:39:29;18.20;1.00
1377;DHT22;682;52.502;13.488;2023-07-02T03:41:56;18.20;1.00
1377;DHT22;682;52.502;13.488;2023-07-02T03:44:24;18.20;1.00
1377;DHT22;682;52.502;13.488;2023-07-02T03:46:51;18.20;1.00
1377;DHT22;682;52.502;13.488;2023-07-02T03:49:18;18.20;1.00
1377;DHT22;682;52.502;13.488;2023-07-02T03:51:45;18.20;1.00
1377;DHT22;682;52.502;13.488;2023-07-02T03:54:12;18.20;1.00
1377;DHT22;682;52.502;13.488;2023-07-02T03:58:53;18.30;1.00
1377;DHT22;682;52.502;13.488;2023-07-02T04:03:52;18.30;1.00
1377;DHT22;682;52.502;13.488;2023-07-02T04:06:19;18.30;1.00
1377;DHT22;682;52.502;13.488;2023-07-02T04:08:48;18.30;1.00
1377;DHT22;682;52.502;13.488;2023-07-02T04:14:37;18.30;1.00
1377;DHT22;682;52.502;13.488;2023-07-02T04:17:05;18.20;1.00
1377;DHT22;682;52.502;13.488;2023-07-02T04:19:37;18.20;1.00
1377;DHT22;682;52.502;13.488;2023-07-02T04:22:07;18.20;1.00
1377;DHT22;682;52.502;13.488;2023-07-02T04:24:37;18.20;1.00
1377;DHT22;682;52.502;13.488;2023-07-02T04:27:06;18.20;1.00
1377;DHT22;682;52.502;13.488;2023-07-02T04:29:38;18.20;1.00
1377;DHT22;682;52.502;13.488;2023-07-02T04:32:08;18.20;1.00
1377;DHT22;682;52.502;13.488;2023-07-02T04:34:38;18.20;1.00
1377;DHT22;682;52.502;13.488;2023-07-02T04:37:10;18.20;1.00
1377;DHT22;682;52.502;13.488;2023-07-02T04:39:53;18.20;1.00
1377;DHT22;682;52.502;13.488;2023-07-02T04:42:27;18.10;1.00
1377;DHT22;682;52.502;13.488;2023-07-02T04:45:02;18.20;1.00
1377;DHT22;682;52.502;13.488;2023-07-02T04:51:00;18.30;1.00
1377;DHT22;682;52.502;13.488;2023-07-02T04:53:27;18.30;1.00
1377;DHT22;682;52.502;13.488;2023-07-02T04:55:57;18.50;1.00
1377;DHT22;682;52.502;13.488;2023-07-02T04:58:24;18.60;1.00
1377;DHT22;682;52.502;13.488;2023-07-02T05:00:51;18.70;1.00
1377;DHT22;682;52.502;13.488;2023-07-02T05:03:20;18.70;1.00
1377;DHT22;682;52.502;13.488;2023-07-02T05:05:53;18.70;1.00
1377;DHT22;682;52.502;13.488;2023-07-02T05:08:22;18.60;1.00
1377;DHT22;682;52.502;13.488;2023-07-02T05:10:49;18.50;1.00
1377;DHT22;682;52.502;13.488;2023-07-02T05:13:19;18.50;1.00
1377;DHT22;682;52.502;13.488;2023-07-02T05:15:48;18.50;1.00
1377;DHT22;682;52.502;13.488;2023-07-02T05:18:15;18.60;1.00
1377;DHT22;682;52.502;13.488;2023-07-02T05:20:45;18.60;1.00
1377;DHT22;682;52.502;13.488;2023-07-02T05:23:12;18.60;1.00
1377;DHT22;682;52.502;13.488;2023-07-02T05:25:41;18.60;1.00
1377;DHT22;682;52.502;13.488;2023-07-02T05:28:11;18.60;1.00
1377;DHT22;682;52.502;13.488;2023-07-02T05:30:38;18.70;1.00
1377;DHT22;682;52.502;13.488;2023-07-02T05:33:06;18.80;1.00
1377;DHT22;682;52.502;13.488;2023-07-02T05:35:33;18.80;1.00
1377;DHT22;682;52.502;13.488;2023-07-02T05:38:04;18.90;1.00
1377;DHT22;682;52.502;13.488;2023-07-02T05:40:32;18.90;1.00
1377;DHT22;682;52.502;13.488;2023-07-02T05:43:03;18.90;1.00
1377;DHT22;682;52.502;13.488;2023-07-02T05:45:30;19.00;1.00
1377;DHT22;682;52.502;13.488;2023-07-02T05:47:58;19.00;1.00
1377;DHT22;682;52.502;13.488;2023-07-02T05:50:30;19.10;1.00
1377;DHT22;682;52.502;13.488;2023-07-02T05:52:59;19.20;1.00
1377;DHT22;682;52.502;13.488;2023-07-02T05:55:26;19.30;1.00
1377;DHT22;682;52.502;13.488;2023-07-02T05:57:56;19.30;1.00
1377;DHT22;682;52.502;13.488;2023-07-02T06:00:33;19.20;1.00
1377;DHT22;682;52.502;13.488;2023-07-02T06:03:03;19.00;1.00
1377;DHT22;682;52.502;13.488;2023-07-02T06:05:30;18.90;1.00
1377;DHT22;682;52.502;13.488;2023-07-02T06:08:00;18.90;1.00
1377;DHT22;682;52.502;13.488;2023-07-02T06:10:27;19.00;1.00
1377;DHT22;682;52.502;13.488;2023-07-02T06:12:56;19.00;1.00
1377;DHT22;682;52.502;13.488;2023-07-02T06:15:24;19.00;1.00
1377;DHT22;682;52.502;13.488;2023-07-02T06:17:59;19.20;1.00
1377;DHT22;682;52.502;13.488;2023-07-02T06:20:29;19.40;1.00
1377;DHT22;682;52.502;13.488;2023-07-02T06:22:57;19.50;1.00
1377;DHT22;682;52.502;13.488;2023-07-02T06:25:27;19.70;1.00
1377;DHT22;682;52.502;13.488;2023-07-02T06:27:55;19.90;1.00
1377;DHT22;682;52.502;13.488;2023-07-02T06:30:36;19.90;1.00
1377;DHT22;682;52.502;13.488;2023-07-02T06:33:21;20.00;1.00
1377;DHT22;682;52.502;13.488;2023-07-02T06:35:50;20.10;1.00
1377;DHT22;682;52.502;13.488;2023-07-02T06:38:19;20.20;1.00
1377;DHT22;682;52.502;13.488;2023-07-02T06:40:46;20.20;1.00
1377;DHT22;682;52.502;13.488;2023-07-02T06:43:18;20.30;1.00
1377;DHT22;682;52.502;13.488;2023-07-02T06:45:54;20.30;1.00
1377;DHT22;682;52.502;13.488;2023-07-02T06:51:33;20.20;1.00
1377;DHT22;682;52.502;13.488;2023-07-02T06:54:16;20.20;1.00
1377;DHT22;682;52.502;13.488;2023-07-02T06:56:43;20.20;1.00
1377;DHT22;682;52.502;13.488;2023-07-02T06:59:10;20.30;1.00
1377;DHT22;682;52.502;13.488;2023-07-02T07:01:37;20.30;1.00
1377;DHT22;682;52.502;13.488;2023-07-02T07:04:05;20.50;1.00
1377;DHT22;682;52.502;13.488;2023-07-02T07:07:05;20.80;1.00
1377;DHT22;682;52.502;13.488;2023-07-02T07:09:44;21.00;1.00
1377;DHT22;682;52.502;13.488;2023-07-02T07:12:19;21.10;1.00
1377;DHT22;682;52.502;13.488;2023-07-02T07:14:46;21.20;1.00
1377;DHT22;682;52.502;13.488;2023-07-02T07:17:15;21.40;1.00
1377;DHT22;682;52.502;13.488;2023-07-02T07:19:51;21.60;1.00
1377;DHT22;682;52.502;13.488;2023-07-02T07:22:22;21.60;1.00
1377;DHT22;682;52.502;13.488;2023-07-02T07:24:56;21.50;1.00
1377;DHT22;682;52.502;13.488;2023-07-02T07:27:25;21.30;1.00
1377;DHT22;682;52.502;13.488;2023-07-02T07:29:55;21.40;1.00
1377;DHT22;682;52.502;13.488;2023-07-02T07:35:34;21.10;1.00
1377;DHT22;682;52.502;13.488;2023-07-02T07:38:09;20.80;1.00
1377;DHT22;682;52.502;13.488;2023-07-02T07:40:37;20.80;1.00
1377;DHT22;682;52.502;13.488;2023-07-02T07:43:04;20.80;1.00
1377;DHT22;682;52.502;13.488;2023-07-02T07:45:33;21.00;1.00
1377;DHT22;682;52.502;13.488;2023-07-02T07:48:00;21.30;1.00
1377;DHT22;682;52.502;13.488;2023-07-02T07:50:28;21.40;1.00
1377;DHT22;682;52.502;13.488;2023-07-02T07:53:00;21.50;1.00
1377;DHT22;682;52.502;13.488;2023-07-02T07:55:28;21.40;1.00
1377;DHT22;682;52.502;13.488;2023-07-02T07:58:09;21.20;1.00
1377;DHT22;682;52.502;13.488;2023-07-02T08:00:36;21.10;1.00
1377;DHT22;682;52.502;13.488;2023-07-02T08:03:04;21.10;1.00
1377;DHT22;682;52.502;13.488;2023-07-02T08:05:34;21.00;1.00
1377;DHT22;682;52.502;13.488;2023-07-02T08:08:05;20.90;1.00
1377;DHT22;682;52.502;13.488;2023-07-02T08:10:34;20.60;1.00
1377;DHT22;682;52.502;13.488;2023-07-02T08:13:05;20.40;1.00
1377;DHT22;682;52.502;13.488;2023-07-02T08:15:35;20.30;1.00
1377;DHT22;682;52.502;13.488;2023-07-02T08:18:05;20.20;1.00
1377;DHT22;682;52.502;13.488;2023-07-02T08:20:37;20.20;1.00
1377;DHT22;682;52.502;13.488;2023-07-02T08:23:10;20.10;1.00
1377;DHT22;682;52.502;13.488;2023-07-02T08:25:41;20.10;1.00
1377;DHT22;682;52.502;13.488;2023-07-02T08:28:21;20.10;1.00
1377;DHT22;682;52.502;13.488;2023-07-02T08:30:54;20.10;1.00
1377;DHT22;682;52.502;13.488;2023-07-02T08:33:26;20.20;1.00
1377;DHT22;682;52.502;13.488;2023-07-02T08:35:54;20.20;1.00
1377;DHT22;682;52.502;13.488;2023-07-02T08:38:24;20.10;1.00
1377;DHT22;682;52.502;13.488;2023-07-02T08:40:52;20.20;1.00
1377;DHT22;682;52.502;13.488;2023-07-02T08:43:21;20.20;1.00
1377;DHT22;682;52.502;13.488;2023-07-02T08:45:50;20.20;1.00
1377;DHT22;682;52.502;13.488;2023-07-02T08:48:18;20.20;1.00
1377;DHT22;682;52.502;13.488;2023-07-02T08:50:48;20.10;1.00
1377;DHT22;682;52.502;13.488;2023-07-02T08:53:16;20.10;1.00
1377;DHT22;682;52.502;13.488;2023-07-02T08:55:51;20.00;1.00
1377;DHT22;682;52.502;13.488;2023-07-02T08:58:22;20.10;1.00
1377;DHT22;682;52.502;13.488;2023-07-02T09:01:07;20.10;1.00
1377;DHT22;682;52.502;13.488;2023-07-02T09:03:37;20.20;1.00
1377;DHT22;682;52.502;13.488;2023-07-02T09:06:06;20.30;1.00
1377;DHT22;682;52.502;13.488;2023-07-02T09:08:33;20.30;1.00
1377;DHT22;682;52.502;13.488;2023-07-02T09:11:13;20.40;1.00
1377;DHT22;682;52.502;13.488;2023-07-02T09:13:46;20.60;1.00
1377;DHT22;682;52.502;13.488;2023-07-02T09:16:28;20.70;1.00
1377;DHT22;682;52.502;13.488;2023-07-02T09:19:03;20.80;1.00
1377;DHT22;682;52.502;13.488;2023-07-02T09:21:49;20.90;1.00
1377;DHT22;682;52.502;13.488;2023-07-02T09:24:26;21.00;1.00
1377;DHT22;682;52.502;13.488;2023-07-02T09:27:04;21.30;1.00
1377;DHT22;682;52.502;13.488;2023-07-02T09:29:39;21.60;1.00
1377;DHT22;682;52.502;13.488;2023-07-02T09:32:23;21.70;1.00
1377;DHT22;682;52.502;13.488;2023-07-02T09:34:53;21.90;1.00
1377;DHT22;682;52.502;13.488;2023-07-02T09:37:24;22.10;1.00
1377;DHT22;682;52.502;13.488;2023-07-02T09:39:55;22.30;1.00
1377;DHT22;682;52.502;13.488;2023-07-02T09:42:47;22.50;1.00
1377;DHT22;682;52.502;13.488;2023-07-02T09:45:18;22.50;1.00
1377;DHT22;682;52.502;13.488;2023-07-02T09:47:55;22.40;1.00
1377;DHT22;682;52.502;13.488;2023-07-02T09:50:35;22.60;1.00
1377;DHT22;682;52.502;13.488;2023-07-02T09:53:06;22.90;1.00
1377;DHT22;682;52.502;13.488;2023-07-02T09:55:54;23.00;1.00
1377;DHT22;682;52.502;13.488;2023-07-02T09:58:40;23.30;1.00
1377;DHT22;682;52.502;13.488;2023-07-02T10:01:20;24.40;1.00
1377;DHT22;682;52.502;13.488;2023-07-02T10:03:53;24.80;1.00
1377;DHT22;682;52.502;13.488;2023-07-02T10:06:39;25.10;1.00
1377;DHT22;682;52.502;13.488;2023-07-02T10:09:34;25.40;1.00
1377;DHT22;682;52.502;13.488;2023-07-02T10:12:28;26.00;1.00
1377;DHT22;682;52.502;13.488;2023-07-02T10:15:27;27.20;1.00
1377;DHT22;682;52.502;13.488;2023-07-02T10:18:02;26.50;1.00
1377;DHT22;682;52.502;13.488;2023-07-02T10:20:39;26.90;1.00
1377;DHT22;682;52.502;13.488;2023-07-02T10:26:18;26.10;1.00
1377;DHT22;682;52.502;13.488;2023-07-02T10:29:03;26.30;1.00
1377;DHT22;682;52.502;13.488;2023-07-02T10:31:50;25.90;1.00
1377;DHT22;682;52.502;13.488;2023-07-02T10:34:31;25.20;1.00
1377;DHT22;682;52.502;13.488;2023-07-02T10:37:07;25.40;1.00
1377;DHT22;682;52.502;13.488;2023-07-02T10:39:39;26.40;1.00
1377;DHT22;682;52.502;13.488;2023-07-02T10:42:12;27.60;1.00
1377;DHT22;682;52.502;13.488;2023-07-02T10:44:48;27.30;1.00
1377;DHT22;682;52.502;13.488;2023-07-02T10:47:28;27.80;1.00
1377;DHT22;682;52.502;13.488;2023-07-02T10:50:20;28.30;1.00
1377;DHT22;682;52.502;13.488;2023-07-02T10:52:50;27.40;1.00
1377;DHT22;682;52.502;13.488;2023-07-02T10:55:20;26.60;1.00
1377;DHT22;682;52.502;13.488;2023-07-02T10:58:05;26.60;1.00
1377;DHT22;682;52.502;13.488;2023-07-02T11:00:59;28.00;1.00
1377;DHT22;682;52.502;13.488;2023-07-02T11:03:27;27.50;1.00
1377;DHT22;682;52.502;13.488;2023-07-02T11:05:54;26.70;1.00
1377;DHT22;682;52.502;13.488;2023-07-02T11:08:22;27.60;1.00
1377;DHT22;682;52.502;13.488;2023-07-02T11:10:51;28.90;1.00
1377;DHT22;682;52.502;13.488;2023-07-02T11:13:33;29.30;1.00
1377;DHT22;682;52.502;13.488;2023-07-02T11:16:01;30.60;1.00
1377;DHT22;682;52.502;13.488;2023-07-02T11:18:30;31.10;1.00
1377;DHT22;682;52.502;13.488;2023-07-02T11:20:57;29.20;1.00
1377;DHT22;682;52.502;13.488;2023-07-02T11:23:25;27.60;1.00
1377;DHT22;682;52.502;13.488;2023-07-02T11:25:57;26.30;1.00
1377;DHT22;682;52.502;13.488;2023-07-02T11:28:25;25.20;1.00
1377;DHT22;682;52.502;13.488;2023-07-02T11:30:53;24.50;1.00
1377;DHT22;682;52.502;13.488;2023-07-02T11:33:34;24.10;1.00
1377;DHT22;682;52.502;13.488;2023-07-02T11:36:01;24.70;1.00
1377;DHT22;682;52.502;13.488;2023-07-02T11:38:29;24.80;1.00
1377;DHT22;682;52.502;13.488;2023-07-02T11:40:56;24.00;1.00
1377;DHT22;682;52.502;13.488;2023-07-02T11:43:24;23.50;1.00
1377;DHT22;682;52.502;13.488;2023-07-02T11:45:51;23.60;1.00
1377;DHT22;682;52.502;13.488;2023-07-02T11:48:18;23.50;1.00
1377;DHT22;682;52.502;13.488;2023-07-02T11:50:47;24.00;1.00
1377;DHT22;682;52.502;13.488;2023-07-02T11:53:14;26.10;1.00
1377;DHT22;682;52.502;13.488;2023-07-02T11:55:43;28.20;1.00
1377;DHT22;682;52.502;13.488;2023-07-02T11:58:10;29.00;1.00
1377;DHT22;682;52.502;13.488;2023-07-02T12:00:37;29.70;1.00
1377;DHT22;682;52.502;13.488;2023-07-02T12:03:04;29.30;1.00
1377;DHT22;682;52.502;13.488;2023-07-02T12:05:32;28.40;1.00
1377;DHT22;682;52.502;13.488;2023-07-02T12:08:02;27.90;1.00
1377;DHT22;682;52.502;13.488;2023-07-02T12:10:29;27.20;1.00
1377;DHT22;682;52.502;13.488;2023-07-02T12:12:56;27.00;1.00
1377;DHT22;682;52.502;13.488;2023-07-02T12:15:23;28.20;1.00
1377;DHT22;682;52.502;13.488;2023-07-02T12:17:50;29.70;1.00
1377;DHT22;682;52.502;13.488;2023-07-02T12:20:17;30.70;1.00
1377;DHT22;682;52.502;13.488;2023-07-02T12:22:45;31.40;1.00
1377;DHT22;682;52.502;13.488;2023-07-02T12:25:16;31.40;1.00
1377;DHT22;682;52.502;13.488;2023-07-02T12:27:43;31.20;1.00
1377;DHT22;682;52.502;13.488;2023-07-02T12:30:11;31.10;1.00
1377;DHT22;682;52.502;13.488;2023-07-02T12:32:42;31.80;1.00
1377;DHT22;682;52.502;13.488;2023-07-02T12:35:10;31.90;1.00
1377;DHT22;682;52.502;13.488;2023-07-02T12:37:43;31.40;1.00
1377;DHT22;682;52.502;13.488;2023-07-02T12:40:11;31.80;1.00
1377;DHT22;682;52.502;13.488;2023-07-02T12:42:41;32.50;1.00
1377;DHT22;682;52.502;13.488;2023-07-02T12:45:09;33.60;1.00
1377;DHT22;682;52.502;13.488;2023-07-02T12:47:39;34.00;1.00
1377;DHT22;682;52.502;13.488;2023-07-02T12:50:10;33.50;1.00
1377;DHT22;682;52.502;13.488;2023-07-02T12:52:37;33.10;1.00
1377;DHT22;682;52.502;13.488;2023-07-02T12:55:05;32.60;1.00
1377;DHT22;682;52.502;13.488;2023-07-02T12:57:32;32.40;1.00
1377;DHT22;682;52.502;13.488;2023-07-02T13:00:01;32.10;1.00
1377;DHT22;682;52.502;13.488;2023-07-02T13:02:34;32.20;1.00
1377;DHT22;682;52.502;13.488;2023-07-02T13:05:01;32.50;1.00
1377;DHT22;682;52.502;13.488;2023-07-02T13:07:28;32.90;1.00
1377;DHT22;682;52.502;13.488;2023-07-02T13:09:56;32.40;1.00
1377;DHT22;682;52.502;13.488;2023-07-02T13:12:23;31.30;1.00
1377;DHT22;682;52.502;13.488;2023-07-02T13:14:50;30.60;1.00
1377;DHT22;682;52.502;13.488;2023-07-02T13:17:26;29.70;1.00
1377;DHT22;682;52.502;13.488;2023-07-02T13:19:53;28.20;1.00
1377;DHT22;682;52.502;13.488;2023-07-02T13:22:21;27.20;1.00
1377;DHT22;682;52.502;13.488;2023-07-02T13:24:48;27.80;1.00
1377;DHT22;682;52.502;13.488;2023-07-02T13:27:17;29.50;1.00
1377;DHT22;682;52.502;13.488;2023-07-02T13:29:45;31.20;1.00
1377;DHT22;682;52.502;13.488;2023-07-02T13:32:12;32.50;1.00
1377;DHT22;682;52.502;13.488;2023-07-02T13:34:40;32.80;1.00
1377;DHT22;682;52.502;13.488;2023-07-02T13:37:08;32.50;1.00
1377;DHT22;682;52.502;13.488;2023-07-02T13:39:35;32.40;1.00
1377;DHT22;682;52.502;13.488;2023-07-02T13:42:03;31.40;1.00
1377;DHT22;682;52.502;13.488;2023-07-02T13:44:30;31.60;1.00
1377;DHT22;682;52.502;13.488;2023-07-02T13:46:58;30.80;1.00
1377;DHT22;682;52.502;13.488;2023-07-02T13:49:25;29.80;1.00
1377;DHT22;682;52.502;13.488;2023-07-02T13:51:54;30.20;1.00
1377;DHT22;682;52.502;13.488;2023-07-02T13:54:22;31.10;1.00
1377;DHT22;682;52.502;13.488;2023-07-02T13:56:49;32.00;1.00
1377;DHT22;682;52.502;13.488;2023-07-02T13:59:18;31.20;1.00
1377;DHT22;682;52.502;13.488;2023-07-02T14:01:47;29.90;1.00
1377;DHT22;682;52.502;13.488;2023-07-02T14:04:15;29.20;1.00
1377;DHT22;682;52.502;13.488;2023-07-02T14:06:43;29.70;1.00
1377;DHT22;682;52.502;13.488;2023-07-02T14:09:10;30.00;1.00
1377;DHT22;682;52.502;13.488;2023-07-02T14:11:40;29.30;1.00
1377;DHT22;682;52.502;13.488;2023-07-02T14:14:08;28.90;1.00
1377;DHT22;682;52.502;13.488;2023-07-02T14:16:37;28.10;1.00
1377;DHT22;682;52.502;13.488;2023-07-02T14:19:05;28.20;1.00
1377;DHT22;682;52.502;13.488;2023-07-02T14:21:32;27.60;1.00
1377;DHT22;682;52.502;13.488;2023-07-02T14:23:59;27.00;1.00
1377;DHT22;682;52.502;13.488;2023-07-02T14:26:26;26.60;1.00
1377;DHT22;682;52.502;13.488;2023-07-02T14:28:53;26.40;1.00
1377;DHT22;682;52.502;13.488;2023-07-02T14:31:20;27.70;1.00
1377;DHT22;682;52.502;13.488;2023-07-02T14:33:50;29.00;1.00
1377;DHT22;682;52.502;13.488;2023-07-02T14:36:17;29.90;1.00
1377;DHT22;682;52.502;13.488;2023-07-02T14:38:44;30.90;1.00
1377;DHT22;682;52.502;13.488;2023-07-02T14:41:11;31.30;1.00
1377;DHT22;682;52.502;13.488;2023-07-02T14:43:38;31.70;1.00
1377;DHT22;682;52.502;13.488;2023-07-02T14:46:05;32.30;1.00
1377;DHT22;682;52.502;13.488;2023-07-02T14:48:32;31.70;1.00
1377;DHT22;682;52.502;13.488;2023-07-02T14:51:02;30.70;1.00
1377;DHT22;682;52.502;13.488;2023-07-02T14:53:30;30.40;1.00
1377;DHT22;682;52.502;13.488;2023-07-02T14:55:59;29.00;1.00
1377;DHT22;682;52.502;13.488;2023-07-02T14:58:29;28.60;1.00
1377;DHT22;682;52.502;13.488;2023-07-02T15:00:57;29.30;1.00
1377;DHT22;682;52.502;13.488;2023-07-02T15:03:25;29.80;1.00
1377;DHT22;682;52.502;13.488;2023-07-02T15:05:53;30.50;1.00
1377;DHT22;682;52.502;13.488;2023-07-02T15:08:22;30.20;1.00
1377;DHT22;682;52.502;13.488;2023-07-02T15:10:51;30.10;1.00
1377;DHT22;682;52.502;13.488;2023-07-02T15:13:19;30.40;1.00
1377;DHT22;682;52.502;13.488;2023-07-02T15:15:49;29.70;1.00
1377;DHT22;682;52.502;13.488;2023-07-02T15:18:16;29.20;1.00
1377;DHT22;682;52.502;13.488;2023-07-02T15:20:44;28.00;1.00
1377;DHT22;682;52.502;13.488;2023-07-02T15:23:11;27.20;1.00
1377;DHT22;682;52.502;13.488;2023-07-02T15:25:40;26.30;1.00
1377;DHT22;682;52.502;13.488;2023-07-02T15:28:07;25.70;1.00
1377;DHT22;682;52.502;13.488;2023-07-02T15:30:37;25.20;1.00
1377;DHT22;682;52.502;13.488;2023-07-02T15:33:05;25.50;1.00
1377;DHT22;682;52.502;13.488;2023-07-02T15:35:32;25.90;1.00
1377;DHT22;682;52.502;13.488;2023-07-02T15:37:59;26.30;1.00
1377;DHT22;682;52.502;13.488;2023-07-02T15:40:26;26.30;1.00
1377;DHT22;682;52.502;13.488;2023-07-02T15:42:54;27.10;1.00
1377;DHT22;682;52.502;13.488;2023-07-02T15:45:22;27.70;1.00
1377;DHT22;682;52.502;13.488;2023-07-02T15:47:49;28.40;1.00
1377;DHT22;682;52.502;13.488;2023-07-02T15:50:16;29.10;1.00
1377;DHT22;682;52.502;13.488;2023-07-02T15:52:43;29.40;1.00
1377;DHT22;682;52.502;13.488;2023-07-02T15:55:10;30.00;1.00
1377;DHT22;682;52.502;13.488;2023-07-02T15:57:37;30.50;1.00
1377;DHT22;682;52.502;13.488;2023-07-02T16:00:07;30.90;1.00
1377;DHT22;682;52.502;13.488;2023-07-02T16:02:34;30.80;1.00
1377;DHT22;682;52.502;13.488;2023-07-02T16:05:02;30.80;1.00
1377;DHT22;682;52.502;13.488;2023-07-02T16:07:29;30.70;1.00
1377;DHT22;682;52.502;13.488;2023-07-02T16:09:58;30.20;1.00
1377;DHT22;682;52.502;13.488;2023-07-02T16:12:25;30.30;1.00
1377;DHT22;682;52.502;13.488;2023-07-02T16:14:52;30.20;1.00
1377;DHT22;682;52.502;13.488;2023-07-02T16:17:22;29.80;1.00
1377;DHT22;682;52.502;13.488;2023-07-02T16:19:49;29.60;1.00
1377;DHT22;682;52.502;13.488;2023-07-02T16:22:16;29.70;1.00
1377;DHT22;682;52.502;13.488;2023-07-02T16:24:43;29.70;1.00
1377;DHT22;682;52.502;13.488;2023-07-02T16:27:10;29.40;1.00
1377;DHT22;682;52.502;13.488;2023-07-02T16:29:39;29.20;1.00
1377;DHT22;682;52.502;13.488;2023-07-02T16:32:11;28.90;1.00
1377;DHT22;682;52.502;13.488;2023-07-02T16:34:40;28.90;1.00
1377;DHT22;682;52.502;13.488;2023-07-02T16:37:09;29.10;1.00
1377;DHT22;682;52.502;13.488;2023-07-02T16:39:36;28.90;1.00
1377;DHT22;682;52.502;13.488;2023-07-02T16:42:04;28.70;1.00
1377;DHT22;682;52.502;13.488;2023-07-02T16:44:31;28.60;1.00
1377;DHT22;682;52.502;13.488;2023-07-02T16:47:01;28.40;1.00
1377;DHT22;682;52.502;13.488;2023-07-02T16:49:28;28.00;1.00
1377;DHT22;682;52.502;13.488;2023-07-02T16:51:57;27.80;1.00
1377;DHT22;682;52.502;13.488;2023-07-02T16:54:25;27.50;1.00
1377;DHT22;682;52.502;13.488;2023-07-02T16:56:54;27.30;1.00
1377;DHT22;682;52.502;13.488;2023-07-02T16:59:22;27.30;1.00
1377;DHT22;682;52.502;13.488;2023-07-02T17:01:52;27.20;1.00
1377;DHT22;682;52.502;13.488;2023-07-02T17:04:20;26.60;1.00